createdAt,value
2023-05-22T00:00:12.884Z,202.74
2023-05-22T00:01:12.912Z,202.98
2023-05-22T00:02:13.015Z,202.36
2023-05-22T00:03:13.042Z,208.75
2023-05-22T00:04:13.047Z,223.97
2023-05-22T00:05:13.155Z,223.14
2023-05-22T00:06:13.150Z,231.76
2023-05-22T00:07:13.159Z,228.86
2023-05-22T00:08:13.206Z,224.68
2023-05-22T00:09:13.229Z,227.59
2023-05-22T00:10:13.367Z,217.07
2023-05-22T00:11:13.319Z,227.87
2023-05-22T00:12:13.406Z,235.01
2023-05-22T00:13:13.426Z,243.13
2023-05-22T00:14:13.573Z,247.74
2023-05-22T00:15:13.527Z,243.47
2023-05-22T00:16:13.528Z,236.79
2023-05-22T00:17:13.793Z,240.58
2023-05-22T00:18:13.669Z,249.82
2023-05-22T00:19:13.882Z,246.94
2023-05-22T00:20:13.741Z,241.95
2023-05-22T00:21:13.758Z,236.57
2023-05-22T00:22:13.846Z,241.70
2023-05-22T00:23:15.541Z,238.16
2023-05-22T00:24:13.948Z,240.77
2023-05-22T00:25:13.915Z,250.00
2023-05-22T00:26:14.001Z,242.71
2023-05-22T00:27:14.010Z,245.34
2023-05-22T00:28:14.078Z,247.27
2023-05-22T00:29:14.135Z,246.16
2023-05-22T00:30:14.197Z,247.29
2023-05-22T00:31:14.220Z,249.96
2023-05-22T00:32:14.274Z,246.16
2023-05-22T00:33:14.336Z,243.15
2023-05-22T00:34:14.427Z,242.74
2023-05-22T00:35:14.411Z,244.79
2023-05-22T00:36:14.440Z,244.41
2023-05-22T00:37:14.479Z,248.78
2023-05-22T00:38:14.538Z,247.50
2023-05-22T00:39:14.617Z,247.89
2023-05-22T00:40:14.647Z,247.69
2023-05-22T00:41:14.681Z,249.17
2023-05-22T00:42:14.760Z,246.16
2023-05-22T00:43:14.758Z,250.00
2023-05-22T00:44:14.841Z,247.28
2023-05-22T00:45:14.904Z,249.33
2023-05-22T00:46:14.941Z,247.92
2023-05-22T00:47:14.979Z,245.25
2023-05-22T00:48:15.017Z,244.26
2023-05-22T00:49:15.048Z,238.11
2023-05-22T00:50:15.101Z,242.56
2023-05-22T00:51:15.160Z,245.49
2023-05-22T00:52:15.218Z,247.82
2023-05-22T00:53:15.238Z,243.31
2023-05-22T00:54:15.270Z,237.01
2023-05-22T00:55:15.287Z,243.39
2023-05-22T00:56:15.373Z,242.59
2023-05-22T00:57:15.389Z,242.52
2023-05-22T00:58:15.445Z,247.71
2023-05-22T00:59:15.487Z,248.67
2023-05-22T01:00:15.520Z,242.89
2023-05-22T01:01:15.623Z,241.58
2023-05-22T01:02:15.635Z,245.82
2023-05-22T01:03:15.709Z,244.88
2023-05-22T01:04:15.829Z,240.26
2023-05-22T01:05:15.678Z,243.36
2023-05-22T01:06:15.731Z,243.85
2023-05-22T01:07:15.760Z,244.70
2023-05-22T01:08:15.803Z,248.29
2023-05-22T01:09:15.854Z,241.41
2023-05-22T01:10:15.864Z,240.92
2023-05-22T01:11:15.918Z,240.74
2023-05-22T01:12:15.958Z,243.69
2023-05-22T01:13:15.981Z,247.72
2023-05-22T01:14:16.009Z,250.00
2023-05-22T01:15:16.049Z,243.42
2023-05-22T01:16:16.117Z,246.95
2023-05-22T01:17:16.104Z,249.64
2023-05-22T01:18:16.172Z,250.00
2023-05-22T01:19:16.279Z,250.00
2023-05-22T01:20:16.148Z,248.15
2023-05-22T01:21:16.177Z,245.58
2023-05-22T01:22:16.210Z,239.90
2023-05-22T01:23:16.332Z,234.43
2023-05-22T01:24:16.315Z,233.28
2023-05-22T01:25:16.269Z,231.69
2023-05-22T01:26:16.263Z,236.51
2023-05-22T01:27:16.285Z,238.42
2023-05-22T01:28:16.270Z,244.23
2023-05-22T01:29:16.298Z,248.36
2023-05-22T01:30:16.310Z,247.58
2023-05-22T01:31:16.413Z,246.96
2023-05-22T01:32:16.354Z,246.97
2023-05-22T01:33:16.439Z,245.36
2023-05-22T01:34:16.352Z,242.34
2023-05-22T01:35:16.334Z,241.17
2023-05-22T01:36:16.325Z,242.09
2023-05-22T01:37:16.326Z,238.84
2023-05-22T01:38:16.331Z,240.24
2023-05-22T01:39:16.336Z,238.99
2023-05-22T01:40:16.312Z,238.93
2023-05-22T01:41:16.295Z,237.87
2023-05-22T01:42:16.298Z,236.02
2023-05-22T01:43:16.327Z,237.02
2023-05-22T01:44:16.317Z,235.08
2023-05-22T01:45:16.288Z,238.19
2023-05-22T01:46:16.299Z,236.73
2023-05-22T01:47:16.265Z,233.76
2023-05-22T01:48:16.313Z,233.60
2023-05-22T01:49:16.282Z,236.03
2023-05-22T01:50:16.317Z,238.45
2023-05-22T01:51:16.294Z,236.09
2023-05-22T01:52:16.330Z,236.27
2023-05-22T01:53:16.409Z,238.42
2023-05-22T01:54:16.411Z,238.32
2023-05-22T01:55:16.452Z,239.16
2023-05-22T01:56:16.498Z,238.86
2023-05-22T01:57:16.532Z,242.78
2023-05-22T01:58:16.608Z,241.78
2023-05-22T01:59:16.610Z,242.14
2023-05-22T02:00:16.646Z,242.75
2023-05-22T02:01:16.735Z,239.87
2023-05-22T02:02:16.758Z,240.25
2023-05-22T02:03:16.861Z,240.55
2023-05-22T02:04:16.801Z,240.73
2023-05-22T02:05:16.862Z,242.38
2023-05-22T02:06:16.912Z,241.47
2023-05-22T02:07:16.966Z,243.46
2023-05-22T02:08:16.981Z,247.14
2023-05-22T02:09:17.053Z,246.02
2023-05-22T02:10:17.132Z,245.85
2023-05-22T02:11:17.197Z,248.11
2023-05-22T02:12:17.198Z,247.85
2023-05-22T02:13:17.218Z,246.88
2023-05-22T02:14:17.330Z,248.22
2023-05-22T02:15:17.352Z,246.70
2023-05-22T02:16:17.433Z,246.49
2023-05-22T02:17:17.466Z,246.15
2023-05-22T02:18:17.501Z,249.28
2023-05-22T02:19:17.654Z,248.22
2023-05-22T02:20:17.627Z,248.06
2023-05-22T02:21:17.699Z,246.64
2023-05-22T02:22:17.791Z,245.51
2023-05-22T02:23:17.848Z,246.46
2023-05-22T02:24:17.901Z,245.63
2023-05-22T02:25:17.999Z,249.24
2023-05-22T02:26:18.054Z,247.63
2023-05-22T02:27:18.077Z,247.62
2023-05-22T02:28:18.167Z,246.27
2023-05-22T02:29:18.243Z,248.37
2023-05-22T02:30:18.268Z,248.75
2023-05-22T02:31:18.410Z,248.64
2023-05-22T02:32:18.386Z,248.55
2023-05-22T02:33:18.461Z,248.74
2023-05-22T02:34:18.514Z,248.73
2023-05-22T02:35:18.584Z,249.70
2023-05-22T02:36:18.648Z,248.62
2023-05-22T02:37:18.697Z,246.34
2023-05-22T02:38:18.766Z,245.74
2023-05-22T02:39:18.840Z,244.92
2023-05-22T02:40:18.896Z,247.62
2023-05-22T02:41:18.942Z,245.18
2023-05-22T02:42:19.025Z,242.98
2023-05-22T02:43:19.073Z,244.52
2023-05-22T02:44:19.137Z,244.29
2023-05-22T02:45:19.166Z,246.02
2023-05-22T02:46:19.289Z,246.14
2023-05-22T02:47:19.290Z,245.46
2023-05-22T02:48:19.374Z,242.06
2023-05-22T02:49:19.423Z,240.84
2023-05-22T02:50:19.507Z,240.13
2023-05-22T02:51:19.530Z,238.96
2023-05-22T02:52:19.610Z,238.47
2023-05-22T02:53:20.202Z,239.60
2023-05-22T02:54:19.722Z,238.30
2023-05-22T02:55:19.774Z,238.39
2023-05-22T02:56:19.867Z,238.30
2023-05-22T02:57:19.927Z,238.25
2023-05-22T02:58:19.956Z,239.89
2023-05-22T02:59:20.058Z,240.97
2023-05-22T03:00:20.078Z,238.70
2023-05-22T03:01:20.152Z,241.51
2023-05-22T03:02:20.193Z,239.85
2023-05-22T03:03:20.477Z,240.60
2023-05-22T03:04:20.327Z,241.17
2023-05-22T03:05:20.409Z,242.32
2023-05-22T03:06:20.444Z,238.96
2023-05-22T03:07:20.505Z,239.14
2023-05-22T03:08:20.570Z,239.73
2023-05-22T03:09:20.638Z,238.57
2023-05-22T03:10:20.719Z,236.57
2023-05-22T03:11:20.780Z,236.14
2023-05-22T03:12:20.820Z,236.32
2023-05-22T03:13:20.897Z,238.38
2023-05-22T03:14:20.935Z,237.62
2023-05-22T03:15:20.999Z,237.79
2023-05-22T03:16:21.121Z,238.14
2023-05-22T03:17:21.100Z,240.48
2023-05-22T03:18:21.178Z,237.78
2023-05-22T03:19:21.280Z,241.72
2023-05-22T03:20:21.313Z,240.99
2023-05-22T03:21:21.367Z,241.67
2023-05-22T03:22:21.452Z,242.61
2023-05-22T03:23:21.491Z,243.36
2023-05-22T03:24:21.583Z,245.17
2023-05-22T03:25:21.619Z,245.42
2023-05-22T03:26:21.698Z,248.19
2023-05-22T03:27:21.758Z,246.18
2023-05-22T03:28:21.788Z,244.66
2023-05-22T03:29:21.919Z,246.86
2023-05-22T03:30:21.966Z,246.31
2023-05-22T03:31:21.993Z,247.24
2023-05-22T03:32:22.080Z,247.51
2023-05-22T03:33:22.142Z,248.69
2023-05-22T03:34:22.187Z,248.56
2023-05-22T03:35:22.252Z,250.00
2023-05-22T03:36:22.295Z,248.67
2023-05-22T03:37:22.367Z,248.13
2023-05-22T03:38:22.438Z,250.17
2023-05-22T03:39:22.493Z,247.86
2023-05-22T03:40:22.584Z,248.18
2023-05-22T03:41:22.644Z,247.92
2023-05-22T03:42:22.675Z,246.33
2023-05-22T03:43:22.777Z,249.00
2023-05-22T03:44:22.824Z,250.00
2023-05-22T03:45:22.892Z,246.85
2023-05-22T03:46:23.041Z,250.00
2023-05-22T03:47:23.016Z,248.23
2023-05-22T03:48:23.068Z,249.54
2023-05-22T03:49:23.110Z,247.27
2023-05-22T03:50:23.175Z,248.93
2023-05-22T03:51:23.178Z,249.21
2023-05-22T03:52:23.286Z,250.00
2023-05-22T03:53:23.316Z,248.53
2023-05-22T03:54:23.360Z,245.54
2023-05-22T03:55:24.264Z,247.52
2023-05-22T03:56:23.453Z,248.17
2023-05-22T03:57:23.551Z,246.46
2023-05-22T03:58:23.554Z,246.54
2023-05-22T03:59:23.601Z,244.75
2023-05-22T04:00:25.706Z,244.70
2023-05-22T04:01:23.693Z,244.20
2023-05-22T04:02:23.796Z,241.87
2023-05-22T04:03:23.716Z,243.40
2023-05-22T04:04:23.649Z,245.16
2023-05-22T04:05:23.724Z,243.46
2023-05-22T04:06:23.596Z,245.40
2023-05-22T04:07:23.607Z,245.22
2023-05-22T04:08:23.640Z,248.13
2023-05-22T04:09:23.609Z,249.03
2023-05-22T04:10:23.614Z,247.24
2023-05-22T04:11:23.581Z,245.71
2023-05-22T04:12:23.583Z,243.90
2023-05-22T04:13:23.570Z,240.55
2023-05-22T04:14:23.568Z,241.80
2023-05-22T04:15:23.599Z,241.18
2023-05-22T04:16:23.619Z,242.28
2023-05-22T04:17:23.569Z,245.69
2023-05-22T04:18:23.536Z,246.09
2023-05-22T04:19:23.604Z,249.16
2023-05-22T04:20:23.557Z,249.20
2023-05-22T04:21:23.526Z,247.37
2023-05-22T04:22:23.484Z,246.20
2023-05-22T04:23:23.510Z,248.25
2023-05-22T04:24:23.501Z,250.00
2023-05-22T04:25:23.495Z,249.26
2023-05-22T04:26:23.511Z,247.94
2023-05-22T04:27:23.479Z,248.71
2023-05-22T04:28:23.484Z,249.97
2023-05-22T04:29:23.466Z,248.52
2023-05-22T04:30:23.460Z,247.22
2023-05-22T04:31:23.530Z,248.28
2023-05-22T04:32:23.467Z,249.32
2023-05-22T04:33:23.438Z,245.64
2023-05-22T04:34:23.428Z,249.17
2023-05-22T04:35:23.453Z,250.00
2023-05-22T04:36:23.420Z,247.54
2023-05-22T04:37:23.384Z,246.86
2023-05-22T04:38:23.400Z,244.80
2023-05-22T04:39:23.402Z,245.55
2023-05-22T04:40:23.385Z,244.61
2023-05-22T04:41:23.357Z,244.73
2023-05-22T04:42:23.378Z,246.67
2023-05-22T04:43:23.382Z,246.49
2023-05-22T04:44:23.370Z,246.55
2023-05-22T04:45:23.341Z,246.31
2023-05-22T04:46:23.362Z,248.31
2023-05-22T04:47:23.421Z,248.05
2023-05-22T04:48:23.374Z,248.07
2023-05-22T04:49:23.337Z,247.41
2023-05-22T04:50:23.344Z,246.50
2023-05-22T04:51:23.317Z,246.83
2023-05-22T04:52:23.411Z,248.08
2023-05-22T04:53:23.354Z,249.39
2023-05-22T04:54:23.368Z,248.46
2023-05-22T04:55:23.286Z,247.03
2023-05-22T04:56:35.449Z,247.51
2023-05-22T04:57:24.328Z,247.71
2023-05-22T04:58:23.297Z,247.85
2023-05-22T04:59:23.288Z,247.35
2023-05-22T05:00:23.285Z,247.13
2023-05-22T05:01:32.890Z,250.30
2023-05-22T05:02:23.263Z,248.00
2023-05-22T05:03:23.311Z,248.93
2023-05-22T05:04:23.309Z,250.70
2023-05-22T05:05:23.256Z,252.35
2023-05-22T05:06:23.256Z,254.30
2023-05-22T05:07:23.229Z,248.30
2023-05-22T05:08:23.267Z,246.78
2023-05-22T05:09:23.222Z,246.83
2023-05-22T05:10:23.230Z,246.50
2023-05-22T05:11:23.196Z,247.66
2023-05-22T05:12:23.211Z,246.96
2023-05-22T05:13:23.185Z,245.62
2023-05-22T05:14:23.185Z,247.15
2023-05-22T05:15:23.194Z,248.40
2023-05-22T05:16:23.211Z,248.18
2023-05-22T05:17:23.176Z,249.06
2023-05-22T05:18:23.128Z,250.00
2023-05-22T05:19:23.242Z,246.90
2023-05-22T05:20:23.161Z,250.00
2023-05-22T05:21:23.141Z,246.18
2023-05-22T05:22:23.181Z,245.25
2023-05-22T05:23:23.137Z,249.25
2023-05-22T05:24:23.141Z,247.70
2023-05-22T05:25:23.094Z,243.92
2023-05-22T05:26:23.078Z,243.91
2023-05-22T05:27:23.109Z,246.61
2023-05-22T05:28:23.101Z,244.71
2023-05-22T05:29:23.111Z,243.70
2023-05-22T05:30:23.080Z,244.59
2023-05-22T05:31:23.071Z,247.67
2023-05-22T05:32:23.232Z,245.00
2023-05-22T05:33:23.054Z,248.46
2023-05-22T05:34:23.311Z,248.80
2023-05-22T05:35:23.013Z,250.70
2023-05-22T05:36:23.011Z,248.53
2023-05-22T05:37:23.033Z,250.17
2023-05-22T05:38:23.053Z,249.09
2023-05-22T05:39:23.472Z,251.89
2023-05-22T05:40:23.042Z,249.84
2023-05-22T05:41:23.070Z,249.70
2023-05-22T05:42:22.989Z,249.48
2023-05-22T05:43:23.021Z,250.00
2023-05-22T05:44:23.058Z,250.00
2023-05-22T05:45:22.974Z,249.96
2023-05-22T05:46:30.661Z,247.63
2023-05-22T05:47:22.974Z,247.85
2023-05-22T05:48:22.965Z,248.86
2023-05-22T05:49:23.326Z,250.39
2023-05-22T05:50:22.936Z,253.30
2023-05-22T05:51:22.929Z,260.51
2023-05-22T05:52:22.947Z,251.79
2023-05-22T05:53:22.946Z,249.97
2023-05-22T05:54:23.410Z,249.61
2023-05-22T05:55:22.942Z,249.79
2023-05-22T05:56:22.948Z,248.81
2023-05-22T05:57:22.904Z,250.00
2023-05-22T05:58:23.898Z,250.00
2023-05-22T05:59:22.916Z,250.00
2023-05-22T06:00:22.970Z,248.63
2023-05-22T06:01:22.865Z,250.00
2023-05-22T06:02:22.959Z,250.00
2023-05-22T06:03:22.975Z,249.74
2023-05-22T06:04:22.840Z,250.00
2023-05-22T06:05:22.934Z,250.00
2023-05-22T06:06:22.872Z,250.13
2023-05-22T06:07:22.874Z,249.53
2023-05-22T06:08:22.877Z,250.00
2023-05-22T06:09:22.900Z,249.70
2023-05-22T06:10:22.894Z,249.83
2023-05-22T06:11:22.903Z,248.80
2023-05-22T06:12:22.950Z,248.96
2023-05-22T06:13:22.981Z,250.00
2023-05-22T06:14:22.956Z,250.00
2023-05-22T06:15:22.925Z,249.57
2023-05-22T06:16:23.018Z,250.00
2023-05-22T06:17:22.965Z,250.06
2023-05-22T06:18:22.993Z,248.66
2023-05-22T06:19:23.408Z,250.00
2023-05-22T06:20:22.978Z,249.60
2023-05-22T06:21:22.987Z,249.16
2023-05-22T06:22:23.027Z,248.43
2023-05-22T06:23:23.040Z,248.96
2023-05-22T06:24:23.382Z,249.82
2023-05-22T06:25:23.088Z,249.30
2023-05-22T06:26:23.053Z,248.16
2023-05-22T06:27:23.183Z,249.97
2023-05-22T06:28:23.091Z,249.93
2023-05-22T06:29:23.372Z,250.00
2023-05-22T06:30:38.982Z,249.06
2023-05-22T06:31:24.100Z,249.19
2023-05-22T06:32:23.217Z,249.50
2023-05-22T06:33:23.264Z,250.32
2023-05-22T06:34:23.399Z,252.22
2023-05-22T06:35:23.083Z,253.13
2023-05-22T06:36:23.128Z,249.12
2023-05-22T06:37:23.040Z,249.62
2023-05-22T06:38:23.014Z,250.25
2023-05-22T06:39:23.071Z,247.98
2023-05-22T06:40:23.018Z,245.88
2023-05-22T06:41:23.031Z,243.77
2023-05-22T06:42:22.986Z,242.71
2023-05-22T06:43:23.236Z,241.58
2023-05-22T06:44:23.485Z,241.71
2023-05-22T06:45:23.177Z,241.26
2023-05-22T06:46:25.109Z,242.37
2023-05-22T06:47:23.135Z,243.19
2023-05-22T06:48:23.179Z,245.11
2023-05-22T06:49:23.395Z,245.87
2023-05-22T06:50:22.913Z,246.54
2023-05-22T06:51:22.992Z,247.54
2023-05-22T06:52:22.960Z,248.97
2023-05-22T06:53:23.027Z,250.00
2023-05-22T06:54:22.929Z,249.15
2023-05-22T06:55:23.007Z,248.62
2023-05-22T06:56:22.945Z,247.92
2023-05-22T06:57:22.895Z,245.52
2023-05-22T06:58:22.919Z,243.63
2023-05-22T06:59:22.978Z,241.30
2023-05-22T07:00:22.895Z,239.41
2023-05-22T07:01:23.092Z,236.85
2023-05-22T07:02:22.872Z,223.99
2023-05-22T07:03:22.878Z,222.21
2023-05-22T07:04:23.005Z,220.35
2023-05-22T07:05:22.987Z,218.09
2023-05-22T07:06:22.915Z,219.06
2023-05-22T07:07:22.925Z,219.36
2023-05-22T07:08:22.858Z,218.92
2023-05-22T07:09:22.858Z,219.88
2023-05-22T07:10:22.880Z,219.17
2023-05-22T07:11:22.824Z,214.78
2023-05-22T07:12:22.787Z,213.84
2023-05-22T07:13:22.844Z,215.02
2023-05-22T07:14:22.873Z,214.54
2023-05-22T07:15:22.893Z,211.79
2023-05-22T07:16:22.856Z,211.43
2023-05-22T07:17:22.893Z,212.15
2023-05-22T07:18:22.776Z,211.37
2023-05-22T07:19:22.835Z,209.93
2023-05-22T07:20:22.757Z,209.78
2023-05-22T07:21:22.750Z,209.06
2023-05-22T07:22:22.722Z,207.57
2023-05-22T07:23:24.378Z,208.55
2023-05-22T07:24:22.857Z,211.22
2023-05-22T07:25:22.706Z,211.06
2023-05-22T07:26:22.725Z,210.62
2023-05-22T07:27:22.742Z,211.33
2023-05-22T07:28:22.681Z,213.09
2023-05-22T07:29:23.385Z,214.24
2023-05-22T07:30:22.685Z,215.85
2023-05-22T07:31:22.735Z,218.63
2023-05-22T07:32:22.798Z,221.61
2023-05-22T07:33:22.688Z,223.06
2023-05-22T07:34:22.620Z,223.93
2023-05-22T07:35:22.680Z,226.14
2023-05-22T07:36:22.613Z,225.95
2023-05-22T07:37:22.613Z,227.31
2023-05-22T07:38:22.596Z,219.49
2023-05-22T07:39:22.617Z,222.16
2023-05-22T07:40:24.349Z,208.59
2023-05-22T07:41:22.646Z,188.33
2023-05-22T07:42:22.637Z,194.53
2023-05-22T07:43:22.694Z,198.16
2023-05-22T07:44:22.693Z,200.68
2023-05-22T07:45:22.915Z,201.31
2023-05-22T07:46:22.764Z,202.78
2023-05-22T07:47:22.743Z,204.48
2023-05-22T07:48:22.708Z,205.43
2023-05-22T07:49:22.716Z,206.14
2023-05-22T07:50:22.962Z,206.45
2023-05-22T07:51:22.733Z,208.21
2023-05-22T07:52:22.798Z,206.23
2023-05-22T07:53:22.866Z,204.97
2023-05-22T07:54:22.892Z,204.71
2023-05-22T07:55:22.860Z,202.46
2023-05-22T07:56:22.863Z,201.84
2023-05-22T07:57:22.878Z,191.09
2023-05-22T07:58:22.894Z,188.98
2023-05-22T07:59:22.878Z,188.52
2023-05-22T08:00:22.915Z,189.73
2023-05-22T08:01:22.910Z,186.77
2023-05-22T08:02:23.020Z,187.38
2023-05-22T08:03:24.149Z,187.23
2023-05-22T08:04:23.059Z,187.38
2023-05-22T08:05:23.483Z,186.31
2023-05-22T08:06:22.929Z,187.36
2023-05-22T08:07:23.013Z,185.29
2023-05-22T08:08:22.964Z,185.73
2023-05-22T08:09:22.962Z,183.50
2023-05-22T08:10:23.431Z,184.03
2023-05-22T08:11:22.983Z,185.96
2023-05-22T08:12:23.033Z,186.11
2023-05-22T08:13:23.114Z,185.81
2023-05-22T08:14:23.161Z,185.34
2023-05-22T08:15:23.264Z,187.61
2023-05-22T08:16:23.318Z,190.83
2023-05-22T08:17:23.314Z,193.23
2023-05-22T08:18:23.302Z,197.66
2023-05-22T08:19:23.549Z,203.43
2023-05-22T08:20:23.430Z,205.62
2023-05-22T08:21:23.532Z,210.08
2023-05-22T08:22:23.518Z,214.87
2023-05-22T08:23:23.593Z,217.13
2023-05-22T08:24:23.548Z,220.78
2023-05-22T08:25:23.562Z,222.72
2023-05-22T08:26:23.601Z,227.47
2023-05-22T08:27:23.608Z,230.17
2023-05-22T08:28:23.658Z,233.68
2023-05-22T08:29:23.625Z,235.83
2023-05-22T08:30:23.857Z,234.92
2023-05-22T08:31:23.948Z,238.34
2023-05-22T08:32:23.780Z,242.07
2023-05-22T08:33:23.692Z,244.12
2023-05-22T08:34:23.717Z,242.58
2023-05-22T08:35:23.736Z,242.41
2023-05-22T08:36:23.753Z,236.95
2023-05-22T08:37:23.820Z,233.68
2023-05-22T08:38:23.830Z,228.09
2023-05-22T08:39:23.871Z,216.41
2023-05-22T08:40:23.972Z,212.97
2023-05-22T08:41:24.468Z,176.58
2023-05-22T08:42:24.030Z,131.41
2023-05-22T08:43:23.982Z,119.01
2023-05-22T08:44:23.990Z,96.15
2023-05-22T08:45:24.022Z,71.38
2023-05-22T08:46:24.463Z,59.67
2023-05-22T08:47:24.058Z,54.07
2023-05-22T08:48:24.021Z,51.57
2023-05-22T08:49:24.379Z,33.53
2023-05-22T08:50:24.043Z,20.38
2023-05-22T08:51:24.083Z,28.05
2023-05-22T08:52:24.133Z,39.09
2023-05-22T08:53:24.105Z,52.57
2023-05-22T08:54:24.153Z,64.45
2023-05-22T08:55:24.120Z,69.14
2023-05-22T08:56:25.176Z,77.97
2023-05-22T08:57:24.277Z,85.32
2023-05-22T08:58:24.272Z,91.71
2023-05-22T08:59:24.295Z,97.33
2023-05-22T09:00:24.345Z,100.42
2023-05-22T09:01:24.460Z,109.37
2023-05-22T09:02:24.369Z,115.79
2023-05-22T09:03:24.478Z,121.44
2023-05-22T09:04:24.460Z,125.96
2023-05-22T09:05:24.531Z,134.34
2023-05-22T09:06:24.948Z,140.93
2023-05-22T09:07:24.835Z,147.89
2023-05-22T09:08:24.712Z,147.02
2023-05-22T09:09:25.410Z,150.48
2023-05-22T09:10:24.814Z,153.78
2023-05-22T09:11:24.931Z,154.05
2023-05-22T09:12:24.985Z,161.66
2023-05-22T09:13:25.034Z,165.83
2023-05-22T09:14:25.117Z,169.38
2023-05-22T09:15:25.108Z,172.40
2023-05-22T09:16:25.294Z,175.44
2023-05-22T09:17:25.276Z,177.59
2023-05-22T09:18:25.306Z,179.46
2023-05-22T09:19:25.425Z,181.42
2023-05-22T09:20:25.376Z,181.53
2023-05-22T09:21:30.302Z,181.64
2023-05-22T09:22:26.448Z,181.19
2023-05-22T09:23:25.417Z,177.16
2023-05-22T09:24:25.439Z,177.73
2023-05-22T09:25:25.434Z,175.54
2023-05-22T09:26:25.426Z,174.30
2023-05-22T09:27:25.403Z,174.39
2023-05-22T09:28:25.407Z,179.07
2023-05-22T09:29:25.396Z,181.75
2023-05-22T09:30:25.394Z,184.27
2023-05-22T09:31:25.439Z,180.84
2023-05-22T09:32:25.461Z,185.36
2023-05-22T09:33:25.405Z,181.32
2023-05-22T09:34:25.445Z,176.95
2023-05-22T09:35:25.502Z,176.43
2023-05-22T09:36:25.491Z,177.35
2023-05-22T09:37:25.574Z,178.03
2023-05-22T09:38:25.581Z,179.52
2023-05-22T09:39:25.791Z,181.65
2023-05-22T09:40:25.618Z,181.88
2023-05-22T09:41:25.971Z,168.09
2023-05-22T09:42:25.722Z,162.81
2023-05-22T09:43:25.856Z,113.19
2023-05-22T09:44:25.839Z,87.80
2023-05-22T09:45:25.899Z,86.48
2023-05-22T09:46:26.062Z,86.69
2023-05-22T09:47:26.082Z,87.11
2023-05-22T09:48:26.095Z,90.16
2023-05-22T09:49:26.174Z,94.53
2023-05-22T09:50:26.204Z,101.19
2023-05-22T09:51:26.595Z,104.61
2023-05-22T09:52:26.328Z,107.10
2023-05-22T09:53:26.407Z,118.11
2023-05-22T09:54:26.417Z,124.92
2023-05-22T09:55:26.477Z,128.83
2023-05-22T09:56:37.790Z,134.74
2023-05-22T09:57:27.492Z,134.89
2023-05-22T09:58:26.499Z,136.04
2023-05-22T09:59:26.481Z,139.22
2023-05-22T10:00:26.503Z,143.94
2023-05-22T10:01:26.581Z,151.05
2023-05-22T10:02:26.641Z,152.81
2023-05-22T10:03:26.567Z,154.53
2023-05-22T10:04:26.636Z,155.11
2023-05-22T10:05:26.691Z,155.31
2023-05-22T10:06:26.645Z,153.13
2023-05-22T10:07:26.717Z,153.64
2023-05-22T10:08:26.728Z,157.98
2023-05-22T10:09:26.743Z,166.02
2023-05-22T10:10:26.786Z,170.78
2023-05-22T10:11:26.819Z,176.97
2023-05-22T10:12:26.842Z,181.89
2023-05-22T10:13:26.847Z,187.34
2023-05-22T10:14:27.808Z,189.07
2023-05-22T10:15:26.910Z,186.11
2023-05-22T10:16:27.023Z,189.75
2023-05-22T10:17:26.958Z,190.34
2023-05-22T10:18:26.981Z,192.73
2023-05-22T10:19:27.305Z,187.40
2023-05-22T10:20:27.006Z,192.16
2023-05-22T10:21:27.011Z,185.91
2023-05-22T10:22:27.063Z,186.92
2023-05-22T10:23:27.049Z,185.70
2023-05-22T10:24:27.059Z,184.58
2023-05-22T10:25:27.058Z,190.95
2023-05-22T10:26:27.503Z,191.96
2023-05-22T10:27:27.227Z,194.86
2023-05-22T10:28:27.069Z,193.99
2023-05-22T10:29:27.105Z,195.89
2023-05-22T10:30:27.125Z,197.45
2023-05-22T10:31:27.078Z,197.47
2023-05-22T10:32:27.138Z,195.92
2023-05-22T10:33:27.138Z,198.08
2023-05-22T10:34:27.100Z,197.51
2023-05-22T10:35:27.112Z,192.24
2023-05-22T10:36:27.117Z,190.52
2023-05-22T10:37:27.264Z,192.94
2023-05-22T10:38:27.147Z,197.45
2023-05-22T10:39:27.071Z,202.67
2023-05-22T10:40:27.094Z,200.56
2023-05-22T10:41:28.023Z,200.26
2023-05-22T10:42:27.528Z,196.58
2023-05-22T10:43:27.216Z,195.31
2023-05-22T10:44:27.178Z,194.91
2023-05-22T10:45:27.224Z,183.06
2023-05-22T10:46:27.242Z,179.96
2023-05-22T10:47:27.541Z,180.61
2023-05-22T10:48:27.246Z,180.55
2023-05-22T10:49:27.249Z,181.06
2023-05-22T10:50:27.258Z,179.52
2023-05-22T10:51:27.316Z,179.09
2023-05-22T10:52:27.302Z,176.09
2023-05-22T10:53:27.350Z,168.04
2023-05-22T10:54:27.388Z,160.38
2023-05-22T10:55:27.390Z,156.34
2023-05-22T10:56:27.464Z,148.01
2023-05-22T10:57:27.519Z,141.82
2023-05-22T10:58:27.483Z,140.63
2023-05-22T10:59:27.580Z,138.63
2023-05-22T11:00:27.528Z,137.26
2023-05-22T11:01:27.621Z,134.86
2023-05-22T11:02:28.118Z,132.62
2023-05-22T11:03:27.704Z,127.69
2023-05-22T11:04:27.725Z,126.40
2023-05-22T11:05:27.670Z,123.24
2023-05-22T11:06:27.676Z,118.96
2023-05-22T11:07:27.757Z,114.73
2023-05-22T11:08:27.754Z,108.87
2023-05-22T11:09:27.768Z,109.75
2023-05-22T11:10:27.832Z,104.40
2023-05-22T11:11:27.881Z,97.98
2023-05-22T11:12:28.044Z,93.36
2023-05-22T11:13:29.323Z,83.42
2023-05-22T11:14:27.992Z,75.33
2023-05-22T11:15:28.060Z,70.04
2023-05-22T11:16:28.013Z,66.32
2023-05-22T11:17:28.563Z,65.23
2023-05-22T11:18:28.082Z,66.38
2023-05-22T11:19:28.114Z,65.37
2023-05-22T11:20:28.150Z,64.05
2023-05-22T11:21:28.117Z,64.25
2023-05-22T11:22:28.549Z,62.65
2023-05-22T11:23:28.191Z,63.52
2023-05-22T11:24:28.235Z,57.63
2023-05-22T11:25:28.265Z,50.73
2023-05-22T11:26:28.328Z,46.11
2023-05-22T11:27:28.528Z,43.19
2023-05-22T11:28:28.384Z,56.43
2023-05-22T11:29:28.406Z,62.17
2023-05-22T11:30:28.429Z,65.27
2023-05-22T11:31:28.647Z,58.24
2023-05-22T11:32:29.012Z,25.00
2023-05-22T11:33:28.551Z,6.54
2023-05-22T11:34:28.688Z,0.00
2023-05-22T11:35:28.681Z,0.63
2023-05-22T11:36:28.650Z,12.79
2023-05-22T11:37:28.681Z,23.60
2023-05-22T11:38:29.007Z,27.71
2023-05-22T11:39:28.737Z,29.73
2023-05-22T11:40:28.757Z,31.47
2023-05-22T11:41:29.592Z,32.47
2023-05-22T11:42:28.785Z,33.94
2023-05-22T11:43:28.837Z,38.21
2023-05-22T11:44:28.904Z,41.51
2023-05-22T11:45:28.943Z,40.75
2023-05-22T11:46:28.977Z,41.23
2023-05-22T11:47:29.144Z,43.87
2023-05-22T11:48:29.022Z,46.18
2023-05-22T11:49:29.066Z,47.33
2023-05-22T11:50:41.727Z,49.64
2023-05-22T11:51:30.116Z,49.83
2023-05-22T11:52:29.092Z,50.92
2023-05-22T11:53:29.104Z,52.88
2023-05-22T11:54:29.071Z,57.59
2023-05-22T11:55:29.046Z,64.79
2023-05-22T11:56:29.036Z,71.03
2023-05-22T11:57:29.062Z,73.88
2023-05-22T11:58:29.015Z,76.25
2023-05-22T11:59:29.143Z,76.55
2023-05-22T12:00:29.063Z,77.25
2023-05-22T12:01:29.017Z,78.74
2023-05-22T12:02:29.058Z,81.24
2023-05-22T12:03:29.207Z,83.21
2023-05-22T12:04:29.065Z,84.98
2023-05-22T12:05:29.113Z,87.06
2023-05-22T12:06:29.138Z,89.56
2023-05-22T12:07:29.183Z,89.89
2023-05-22T12:08:29.257Z,90.58
2023-05-22T12:09:29.269Z,90.58
2023-05-22T12:10:29.383Z,91.02
2023-05-22T12:11:29.371Z,93.99
2023-05-22T12:12:29.462Z,103.22
2023-05-22T12:13:29.504Z,102.00
2023-05-22T12:14:29.542Z,95.49
2023-05-22T12:15:29.613Z,98.94
2023-05-22T12:16:29.665Z,106.57
2023-05-22T12:17:29.747Z,95.57
2023-05-22T12:18:29.768Z,95.04
2023-05-22T12:19:30.009Z,97.21
2023-05-22T12:20:29.908Z,96.30
2023-05-22T12:21:29.931Z,98.86
2023-05-22T12:22:30.029Z,100.02
2023-05-22T12:23:30.083Z,101.53
2023-05-22T12:24:30.181Z,101.59
2023-05-22T12:25:30.203Z,102.23
2023-05-22T12:26:30.234Z,103.80
2023-05-22T12:27:32.683Z,105.55
2023-05-22T12:28:30.303Z,107.06
2023-05-22T12:29:30.295Z,105.74
2023-05-22T12:30:30.287Z,106.19
2023-05-22T12:31:30.358Z,106.09